createdAt,value
2019-01-12T00:01:11.636Z,39.50
2019-01-12T00:03:40.263Z,46.57
2019-01-12T00:06:08.845Z,36.17
2019-01-12T00:08:37.292Z,38.53
2019-01-12T00:11:05.909Z,47.50
2019-01-12T00:13:34.308Z,41.70
2019-01-12T00:16:02.973Z,40.33
2019-01-12T00:18:31.454Z,40.40
2019-01-12T00:20:59.931Z,44.63
2019-01-12T00:23:28.415Z,31.53
2019-01-12T00:25:57.101Z,45.27
2019-01-12T00:28:25.579Z,41.50
2019-01-12T00:30:54.371Z,33.17
2019-01-12T00:33:22.815Z,38.17
2019-01-12T00:35:51.243Z,35.30
2019-01-12T00:38:19.813Z,39.23
2019-01-12T00:40:48.260Z,41.03
2019-01-12T00:43:16.776Z,41.20
2019-01-12T00:45:45.254Z,47.83
2019-01-12T00:48:13.699Z,40.07
2019-01-12T00:50:42.217Z,34.10
2019-01-12T00:53:10.665Z,40.90
2019-01-12T00:55:39.144Z,34.80
2019-01-12T00:58:07.614Z,38.73
2019-01-12T01:00:36.040Z,41.43
2019-01-12T01:03:04.620Z,37.47
2019-01-12T01:05:33.100Z,43.93
2019-01-12T01:08:01.525Z,36.10
2019-01-12T01:10:30.063Z,35.90
2019-01-12T01:12:58.508Z,42.93
2019-01-12T01:15:26.971Z,43.23
2019-01-12T01:17:55.433Z,40.27
2019-01-12T01:20:23.952Z,33.17
2019-01-12T01:22:52.568Z,41.20
2019-01-12T01:25:21.050Z,48.80
2019-01-12T01:27:49.445Z,39.13
2019-01-12T01:30:19.172Z,40.63
2019-01-12T01:32:47.718Z,47.57
2019-01-12T01:35:16.302Z,30.20
2019-01-12T01:37:44.887Z,26.27
2019-01-12T01:40:15.415Z,39.83
2019-01-12T01:42:43.999Z,36.17
2019-01-12T01:45:14.460Z,37.27
2019-01-12T01:47:42.976Z,45.77
2019-01-12T01:50:13.203Z,30.07
2019-01-12T01:52:41.708Z,38.43
2019-01-12T01:55:10.188Z,37.70
2019-01-12T01:57:38.775Z,41.83
2019-01-12T02:00:10.585Z,51.03
2019-01-12T02:02:39.116Z,32.47
2019-01-12T02:05:07.699Z,42.90
2019-01-12T02:07:36.146Z,51.33
2019-01-12T02:10:08.141Z,38.47
2019-01-12T02:12:36.592Z,41.63
2019-01-12T02:15:08.264Z,42.37
2019-01-12T02:17:36.761Z,33.87
2019-01-12T02:20:05.728Z,30.13
2019-01-12T02:22:34.232Z,34.60
2019-01-12T02:25:02.815Z,33.53
2019-01-12T02:27:31.297Z,34.87
2019-01-12T02:29:59.777Z,36.07
2019-01-12T02:32:28.357Z,37.67
2019-01-12T02:34:56.808Z,33.93
2019-01-12T02:37:25.323Z,35.80
2019-01-12T02:39:53.800Z,36.60
2019-01-12T02:42:22.262Z,31.60
2019-01-12T02:44:50.770Z,33.47
2019-01-12T02:47:19.242Z,29.63
2019-01-12T02:49:47.726Z,29.13
2019-01-12T02:52:16.171Z,34.80
2019-01-12T02:54:44.652Z,33.17
2019-01-12T02:57:13.168Z,40.17
2019-01-12T02:59:41.616Z,34.60
2019-01-12T03:02:10.148Z,30.83
2019-01-12T03:04:38.612Z,25.03
2019-01-12T03:07:07.090Z,39.43
2019-01-12T03:09:35.574Z,35.10
2019-01-12T03:12:04.153Z,30.57
2019-01-12T03:14:32.599Z,32.60
2019-01-12T03:17:01.119Z,39.17
2019-01-12T03:19:29.566Z,29.50
2019-01-12T03:21:58.085Z,32.90
2019-01-12T03:24:26.561Z,35.67
2019-01-12T03:26:55.037Z,36.57
2019-01-12T03:29:23.532Z,34.67
2019-01-12T03:31:52.100Z,28.83
2019-01-12T03:34:20.889Z,43.67
2019-01-12T03:36:49.477Z,34.47
2019-01-12T03:39:17.924Z,30.00
2019-01-12T03:41:46.397Z,34.43
2019-01-12T03:44:14.896Z,33.13
2019-01-12T03:46:43.363Z,33.77
2019-01-12T03:49:11.847Z,25.77
2019-01-12T03:54:17.559Z,31.37
2019-01-12T03:56:46.041Z,32.13
2019-01-12T03:59:14.446Z,34.90
2019-01-12T04:01:43.103Z,32.23
2019-01-12T04:04:11.529Z,33.40
2019-01-12T04:06:40.070Z,34.67
2019-01-12T04:09:08.678Z,34.63
2019-01-12T04:11:37.108Z,33.10
2019-01-12T04:14:05.688Z,37.47
2019-01-12T04:19:10.178Z,21.13
2019-01-12T04:21:38.627Z,29.17
2019-01-12T04:24:07.140Z,40.83
2019-01-12T04:26:35.584Z,40.00
2019-01-12T04:31:34.897Z,34.90
2019-01-12T04:34:03.415Z,26.30
2019-01-12T04:36:31.867Z,25.20
2019-01-12T04:39:00.357Z,31.53
2019-01-12T04:41:28.844Z,31.17
2019-01-12T04:43:57.440Z,31.97
2019-01-12T04:46:26.026Z,23.70
2019-01-12T04:48:54.590Z,24.97
2019-01-12T04:51:23.059Z,30.53
2019-01-12T04:53:51.674Z,29.60
2019-01-12T04:56:20.225Z,22.17
2019-01-12T04:58:48.738Z,31.77
2019-01-12T05:01:17.219Z,37.63
2019-01-12T05:03:45.665Z,26.03
2019-01-12T05:06:14.283Z,30.63
2019-01-12T05:08:42.828Z,30.80
2019-01-12T05:11:11.294Z,28.57
2019-01-12T05:13:39.808Z,25.57
2019-01-12T05:16:08.276Z,28.27
2019-01-12T05:18:36.787Z,18.00
2019-01-12T05:21:05.311Z,33.57
2019-01-12T05:23:33.794Z,31.00
2019-01-12T05:26:02.302Z,26.40
2019-01-12T05:28:30.809Z,29.43
2019-01-12T05:30:59.294Z,33.87
2019-01-12T05:33:27.751Z,39.67
2019-01-12T05:35:56.354Z,23.70
2019-01-12T05:38:24.837Z,23.83
2019-01-12T05:40:53.324Z,32.60
2019-01-12T05:43:21.766Z,21.30
2019-01-12T05:45:50.280Z,31.77
2019-01-12T05:48:18.716Z,30.83
2019-01-12T05:50:47.154Z,27.10
2019-01-12T05:53:15.726Z,25.17
2019-01-12T05:55:44.200Z,26.03
2019-01-12T05:58:12.684Z,22.10
2019-01-12T06:00:41.267Z,23.47
2019-01-12T06:03:09.817Z,31.30
2019-01-12T06:05:38.432Z,27.30
2019-01-12T06:08:06.880Z,24.23
2019-01-12T06:10:35.364Z,29.67
2019-01-12T06:13:03.851Z,27.03
2019-01-12T06:15:32.329Z,22.43
2019-01-12T06:18:00.837Z,20.80
2019-01-12T06:20:29.318Z,33.40
2019-01-12T06:22:57.762Z,17.93
2019-01-12T06:25:26.282Z,33.20
2019-01-12T06:27:54.761Z,25.40
2019-01-12T06:30:23.241Z,29.63
2019-01-12T06:32:51.723Z,28.67
2019-01-12T06:35:20.200Z,31.77
2019-01-12T06:37:48.745Z,22.93
2019-01-12T06:40:17.574Z,36.93
2019-01-12T06:42:46.124Z,20.47
2019-01-12T06:45:16.318Z,31.10
2019-01-12T06:47:44.823Z,22.47
2019-01-12T06:50:15.520Z,42.33
2019-01-12T06:52:44.176Z,29.97
2019-01-12T06:55:12.861Z,36.97
2019-01-12T06:57:41.279Z,21.20
2019-01-12T07:00:15.344Z,36.97
2019-01-12T07:02:43.805Z,45.90
2019-01-12T07:05:12.315Z,28.57
2019-01-12T07:07:40.774Z,29.87
2019-01-12T07:10:14.545Z,30.87
2019-01-12T07:12:43.184Z,26.30
2019-01-12T07:15:13.243Z,29.03
2019-01-12T07:17:41.894Z,26.00
2019-01-12T07:20:12.881Z,27.60
2019-01-12T07:22:41.405Z,20.27
2019-01-12T07:25:09.863Z,25.20
2019-01-12T07:27:38.287Z,28.53
2019-01-12T07:30:14.459Z,22.87
2019-01-12T07:32:43.113Z,23.63
2019-01-12T07:35:11.521Z,23.93
2019-01-12T07:37:40.076Z,16.03
2019-01-12T07:40:09.083Z,22.67
2019-01-12T07:42:38.365Z,27.37
2019-01-12T07:45:09.256Z,24.60
2019-01-12T07:50:14.411Z,20.33
2019-01-12T07:52:43.168Z,31.83
2019-01-12T07:55:14.012Z,21.20
2019-01-12T07:57:44.871Z,20.70
2019-01-12T08:00:16.544Z,20.60
2019-01-12T08:02:45.598Z,17.20
2019-01-12T08:05:14.495Z,15.83
2019-01-12T08:07:43.361Z,12.40
2019-01-12T08:10:21.092Z,17.00
2019-01-12T08:12:50.075Z,16.00
2019-01-12T08:24:20.138Z,17.67
2019-01-12T08:26:49.230Z,12.40
2019-01-12T08:29:18.298Z,8.03
2019-01-12T08:31:47.176Z,6.40
2019-01-12T08:34:16.231Z,5.47
2019-01-12T08:36:45.652Z,8.17
2019-01-12T08:39:16.756Z,2.83
2019-01-12T08:41:47.560Z,5.63
2019-01-12T08:44:16.499Z,6.17
2019-01-12T08:46:45.584Z,3.93
2019-01-12T08:49:14.976Z,3.97
2019-01-12T08:51:44.087Z,4.50
2019-01-12T08:54:13.281Z,6.57
2019-01-12T08:59:32.397Z,9.40
2019-01-12T09:19:16.599Z,6.17
2019-01-12T09:21:45.814Z,3.57
2019-01-12T09:24:14.703Z,6.70
2019-01-12T09:26:44.946Z,4.27
2019-01-12T09:29:15.742Z,6.03
2019-01-12T09:31:44.628Z,4.53
2019-01-12T09:34:13.723Z,6.23
2019-01-12T09:36:42.851Z,4.43
2019-01-12T09:39:11.578Z,2.37
2019-01-12T09:41:40.507Z,5.40
2019-01-12T09:44:09.233Z,1.93
2019-01-12T09:46:39.710Z,5.73
2019-01-12T09:49:10.037Z,3.67
2019-01-12T09:51:39.096Z,3.20
2019-01-12T09:54:08.399Z,1.63
2019-01-12T09:56:39.037Z,2.37
2019-01-12T09:59:07.515Z,5.17
2019-01-12T10:01:36.327Z,2.60
2019-01-12T10:04:05.373Z,2.53
2019-01-12T10:06:35.797Z,1.90
2019-01-12T10:09:06.172Z,4.33
2019-01-12T10:11:34.730Z,1.30
2019-01-12T10:14:03.831Z,3.10
2019-01-12T10:16:32.301Z,3.80
2019-01-12T10:19:00.792Z,3.43
2019-01-12T10:21:29.922Z,4.20
2019-01-12T10:23:58.560Z,3.30
2019-01-12T10:26:27.694Z,3.07
2019-01-12T10:28:56.463Z,5.50
2019-01-12T10:31:26.014Z,2.00
2019-01-12T10:33:54.614Z,3.27
2019-01-12T10:36:24.265Z,2.57
2019-01-12T10:38:53.140Z,3.67
2019-01-12T10:41:22.087Z,4.30
2019-01-12T10:43:51.093Z,1.63
2019-01-12T10:46:20.433Z,3.37
2019-01-12T10:48:49.280Z,3.90
2019-01-12T10:51:18.989Z,3.33
2019-01-12T10:53:47.677Z,3.13
2019-01-12T10:56:17.476Z,2.83
2019-01-12T10:58:46.597Z,2.27
2019-01-12T11:01:16.666Z,5.37
2019-01-12T11:03:45.563Z,4.13
2019-01-12T11:06:16.573Z,3.50
2019-01-12T11:08:46.654Z,3.03
2019-01-12T11:11:15.104Z,4.13
2019-01-12T11:13:48.608Z,3.37
2019-01-12T11:16:19.138Z,3.87
2019-01-12T11:18:49.892Z,3.50
2019-01-12T11:21:20.220Z,2.40
2019-01-12T11:23:48.760Z,4.50
2019-01-12T11:26:17.275Z,5.07
2019-01-12T11:28:45.825Z,4.77
2019-01-12T11:31:19.738Z,5.00
2019-01-12T11:33:44.561Z,4.67
2019-01-12T11:36:13.008Z,4.20
2019-01-12T11:38:41.625Z,2.87
2019-01-12T11:41:10.128Z,5.33
2019-01-12T11:43:38.541Z,5.63
2019-01-12T11:46:07.272Z,2.97
2019-01-12T11:48:35.680Z,2.93
2019-01-12T11:51:08.031Z,5.57
2019-01-12T11:53:36.584Z,2.83
2019-01-12T11:56:11.492Z,1.57
2019-01-12T11:58:39.999Z,2.57
2019-01-12T12:01:08.464Z,2.27
2019-01-12T12:03:36.978Z,2.13
2019-01-12T12:06:05.460Z,1.33
2019-01-12T12:08:33.913Z,2.70
2019-01-12T12:11:02.422Z,2.43
2019-01-12T12:13:31.006Z,1.30
2019-01-12T12:15:59.996Z,6.13
2019-01-12T12:18:28.887Z,1.20
2019-01-12T12:20:57.571Z,3.47
2019-01-12T12:23:26.155Z,4.43
2019-01-12T12:25:55.275Z,4.03
2019-01-12T12:28:24.575Z,2.93
2019-01-12T12:30:53.762Z,3.13
2019-01-12T12:33:43.463Z,6.60
2019-01-12T12:36:12.521Z,2.77
2019-01-12T12:38:41.562Z,2.70
2019-01-12T12:41:10.507Z,2.37
2019-01-12T12:43:39.547Z,3.80
2019-01-12T12:46:08.494Z,2.30
2019-01-12T12:48:37.720Z,4.57
2019-01-12T12:51:06.927Z,1.83
2019-01-12T12:53:35.798Z,2.37
2019-01-12T12:56:05.053Z,3.73
2019-01-12T12:58:34.599Z,5.00
2019-01-12T13:01:04.044Z,2.13
2019-01-12T13:03:33.240Z,2.87
2019-01-12T13:06:02.586Z,3.13
2019-01-12T13:08:31.997Z,5.43
2019-01-12T13:11:04.291Z,2.30
2019-01-12T13:13:32.834Z,3.50
2019-01-12T13:16:01.487Z,2.77
2019-01-12T13:18:30.467Z,5.23
2019-01-12T13:20:59.512Z,5.37
2019-01-12T13:23:28.473Z,5.50
2019-01-12T13:25:57.431Z,3.77
2019-01-12T13:28:26.526Z,3.07
2019-01-12T13:30:55.617Z,2.90
2019-01-12T13:33:24.578Z,4.80
2019-01-12T13:35:53.923Z,3.77
2019-01-12T13:38:23.217Z,3.93
2019-01-12T13:40:52.270Z,4.30
2019-01-12T13:43:21.091Z,5.93
2019-01-12T13:45:50.074Z,4.33
2019-01-12T13:48:18.979Z,4.07
2019-01-12T13:50:48.137Z,4.70
2019-01-12T13:53:18.891Z,5.20
2019-01-12T13:55:49.486Z,4.57
2019-01-12T13:58:18.311Z,5.70
2019-01-12T14:00:47.342Z,7.73
2019-01-12T14:03:16.470Z,3.17
2019-01-12T14:05:45.605Z,17.13
2019-01-12T14:08:14.145Z,6.37
2019-01-12T14:11:03.932Z,5.07
2019-01-12T14:13:33.160Z,2.20
2019-01-12T14:16:02.215Z,8.03
2019-01-12T14:18:31.140Z,2.07
2019-01-12T14:20:59.835Z,7.37
2019-01-12T14:23:28.893Z,4.30
2019-01-12T14:25:57.962Z,4.13
2019-01-12T14:28:26.886Z,3.53
2019-01-12T14:30:55.889Z,8.77
2019-01-12T14:33:25.256Z,5.30
2019-01-12T14:35:55.381Z,3.70
2019-01-12T14:38:24.827Z,5.03
2019-01-12T14:40:53.721Z,4.93
2019-01-12T14:43:22.236Z,3.60
2019-01-12T14:45:51.563Z,4.00
2019-01-12T14:48:20.147Z,3.07
2019-01-12T14:50:50.577Z,3.80
2019-01-12T14:53:19.191Z,4.37
2019-01-12T14:55:47.668Z,3.93
2019-01-12T14:58:16.078Z,3.80
2019-01-12T15:00:48.548Z,4.70
2019-01-12T15:03:17.730Z,3.77
2019-01-12T15:05:46.517Z,3.80
2019-01-12T15:08:18.514Z,4.90
2019-01-12T15:10:47.751Z,4.10
2019-01-12T15:13:18.196Z,5.43
2019-01-12T15:15:47.399Z,3.73
2019-01-12T15:18:15.973Z,3.73
2019-01-12T15:20:44.862Z,8.33
2019-01-12T15:23:14.326Z,3.77
2019-01-12T15:25:47.416Z,4.67
2019-01-12T15:28:16.314Z,6.07
2019-01-12T15:30:45.248Z,6.53
2019-01-12T15:33:17.909Z,6.00
2019-01-12T15:35:46.902Z,5.33
2019-01-12T15:38:15.946Z,4.90
2019-01-12T15:40:44.492Z,5.13
2019-01-12T15:43:17.576Z,7.80
2019-01-12T15:45:46.911Z,4.47
2019-01-12T15:48:16.188Z,5.63
2019-01-12T15:50:46.572Z,6.07
2019-01-12T15:53:16.507Z,5.90
2019-01-12T15:55:45.601Z,6.27
2019-01-12T15:58:16.302Z,5.93
2019-01-12T16:16:56.151Z,4.87
2019-01-12T16:19:25.842Z,2.97
2019-01-12T16:21:57.185Z,4.43
2019-01-12T16:24:28.069Z,5.13
2019-01-12T16:26:57.137Z,5.33
2019-01-12T16:29:26.705Z,4.10
2019-01-12T16:31:55.765Z,3.73
2019-01-12T16:34:24.777Z,5.13
2019-01-12T16:36:53.697Z,5.23
2019-01-12T16:39:23.562Z,3.77
2019-01-12T16:41:52.521Z,5.13
2019-01-12T16:44:21.929Z,5.87
2019-01-12T16:46:51.011Z,5.43
2019-01-12T16:49:20.406Z,6.17
2019-01-12T16:51:49.912Z,7.17
2019-01-12T16:54:18.646Z,5.93
2019-01-12T16:56:47.974Z,5.67
2019-01-12T16:59:17.727Z,5.53
2019-01-12T17:01:47.627Z,5.17
2019-01-12T17:04:16.940Z,5.50
2019-01-12T17:06:45.728Z,5.93
2019-01-12T17:09:35.625Z,6.90
2019-01-12T17:12:04.217Z,5.97
2019-01-12T17:14:35.073Z,4.40
2019-01-12T17:17:05.668Z,6.83
2019-01-12T17:19:36.355Z,5.90
2019-01-12T17:22:05.539Z,5.90
2019-01-12T17:24:34.381Z,5.47
2019-01-12T17:27:03.460Z,7.10
2019-01-12T17:29:34.154Z,5.50
2019-01-12T17:32:03.631Z,6.70
2019-01-12T17:34:32.316Z,5.23
2019-01-12T17:37:01.238Z,6.10
2019-01-12T17:39:30.695Z,6.33
2019-01-12T17:41:59.910Z,6.67
2019-01-12T17:44:30.777Z,7.03
2019-01-12T17:47:00.354Z,5.93
2019-01-12T17:49:30.163Z,6.10
2019-01-12T17:51:59.308Z,8.10
2019-01-12T17:54:49.414Z,7.47
2019-01-12T17:57:20.214Z,6.87
2019-01-12T17:59:49.086Z,8.27
2019-01-12T18:02:19.630Z,7.90
2019-01-12T18:04:48.626Z,5.60
2019-01-12T18:07:18.997Z,7.27
2019-01-12T18:09:47.756Z,7.97
2019-01-12T18:12:17.448Z,7.03
2019-01-12T18:14:46.794Z,6.90
2019-01-12T18:17:16.125Z,7.60
2019-01-12T18:19:47.926Z,6.90
2019-01-12T18:22:16.897Z,6.30
2019-01-12T18:24:46.180Z,6.30
2019-01-12T18:27:14.970Z,5.57
2019-01-12T18:29:44.090Z,7.73
2019-01-12T18:32:13.179Z,5.53
2019-01-12T18:34:41.912Z,8.80
2019-01-12T18:37:10.857Z,5.97
2019-01-12T18:39:59.205Z,8.77
2019-01-12T18:42:28.609Z,6.40
2019-01-12T18:44:57.630Z,6.53
2019-01-12T18:47:26.677Z,5.70
2019-01-12T18:49:57.291Z,5.57
2019-01-12T18:52:26.674Z,8.00
2019-01-12T18:54:56.038Z,7.47
2019-01-12T18:57:25.222Z,7.17
2019-01-12T18:59:53.993Z,7.20
2019-01-12T19:02:23.235Z,7.63
2019-01-12T19:04:53.365Z,7.10
2019-01-12T19:07:22.734Z,8.23
2019-01-12T19:09:52.953Z,7.90
2019-01-12T19:12:22.690Z,8.53
2019-01-12T19:14:52.805Z,6.63
2019-01-12T19:17:22.700Z,8.73
2019-01-12T19:19:51.852Z,10.60
2019-01-12T19:22:21.585Z,6.13
2019-01-12T19:24:51.355Z,13.10
2019-01-12T19:27:20.516Z,7.27
2019-01-12T19:29:50.341Z,11.13
2019-01-12T19:32:20.852Z,4.80
2019-01-12T19:34:50.747Z,9.97
2019-01-12T19:37:20.990Z,6.87
2019-01-12T19:39:50.746Z,5.73
2019-01-12T19:42:20.868Z,8.43
2019-01-12T19:44:52.901Z,4.73
2019-01-12T19:47:22.923Z,10.80
2019-01-12T19:49:52.635Z,7.77
2019-01-12T19:52:24.271Z,6.63
2019-01-12T19:54:55.510Z,6.03
2019-01-12T19:57:25.412Z,7.87
2019-01-12T20:00:00.540Z,7.20
2019-01-12T20:02:51.618Z,10.00
2019-01-12T20:05:21.756Z,8.07
2019-01-12T20:07:51.916Z,6.27
2019-01-12T20:10:24.108Z,6.23
2019-01-12T20:12:55.050Z,5.33
2019-01-12T20:15:27.265Z,5.23
2019-01-12T20:18:17.909Z,6.10
2019-01-12T20:20:48.085Z,12.53
2019-01-12T20:23:18.266Z,9.47
2019-01-12T20:25:48.577Z,8.27
2019-01-12T20:28:18.569Z,8.20
2019-01-12T20:31:03.084Z,7.07
2019-01-12T20:33:47.881Z,8.10
2019-01-12T20:36:35.823Z,10.07
2019-01-12T20:39:11.389Z,6.90
2019-01-12T20:41:53.170Z,6.47
2019-01-12T20:44:37.571Z,8.07
2019-01-12T20:47:19.743Z,4.73
2019-01-12T20:49:52.132Z,10.00
2019-01-12T20:52:43.754Z,6.83
2019-01-12T20:55:19.670Z,9.10
2019-01-12T20:58:07.933Z,8.97
2019-01-12T21:00:56.560Z,5.20
2019-01-12T21:03:52.381Z,4.03
2019-01-12T21:06:37.318Z,6.87
2019-01-12T21:09:12.733Z,8.37
2019-01-12T21:12:22.456Z,5.83
2019-01-12T21:14:55.545Z,3.97
2019-01-12T21:17:24.995Z,3.97
2019-01-12T21:19:55.076Z,9.90
2019-01-12T21:22:23.910Z,5.50
2019-01-12T21:24:55.486Z,6.43
2019-01-12T21:27:25.851Z,9.00
2019-01-12T21:44:22.160Z,10.37
2019-01-12T21:46:50.939Z,7.53
2019-01-12T22:06:42.265Z,9.50
2019-01-12T22:09:10.876Z,4.90
2019-01-12T22:55:35.301Z,6.17
2019-01-12T22:58:03.808Z,5.13
2019-01-12T23:00:39.755Z,6.57
2019-01-12T23:03:08.268Z,6.77
2019-01-12T23:05:37.332Z,8.33
2019-01-12T23:08:05.880Z,8.03
2019-01-12T23:13:10.233Z,7.03
2019-01-12T23:15:38.679Z,5.87
2019-01-12T23:18:07.314Z,12.23
2019-01-12T23:20:35.860Z,6.57
2019-01-12T23:23:04.458Z,6.63
2019-01-12T23:25:33.888Z,12.83
2019-01-12T23:28:02.949Z,7.57
2019-01-12T23:30:31.400Z,6.03
2019-01-12T23:33:00.017Z,6.27
2019-01-12T23:35:28.574Z,9.77
2019-01-12T23:37:57.152Z,7.20
2019-01-12T23:40:25.666Z,6.83
2019-01-12T23:42:54.253Z,6.57
2019-01-12T23:45:22.697Z,8.67
2019-01-12T23:47:51.212Z,6.63
2019-01-12T23:50:19.696Z,3.60
2019-01-12T23:52:48.275Z,6.80
2019-01-12T23:55:16.735Z,4.43
2019-01-12T23:57:45.159Z,8.33
